createdAt,value
2019-04-07T00:00:22.574Z,23.2
2019-04-07T00:01:32.027Z,23.2
2019-04-07T00:02:41.562Z,23.2
2019-04-07T00:03:51.705Z,23.2
2019-04-07T00:05:14.038Z,23.1
2019-04-07T00:06:09.895Z,23.1
2019-04-07T00:07:19.650Z,23.1
2019-04-07T00:08:28.813Z,23.5
2019-04-07T00:09:38.774Z,23.4
2019-04-07T00:10:47.865Z,23.4
2019-04-07T00:11:57.226Z,23.7
2019-04-07T00:13:07.184Z,23.9
2019-04-07T00:14:16.791Z,24.2
2019-04-07T00:15:25.969Z,24.1
2019-04-07T00:16:35.220Z,24.5
2019-04-07T00:17:44.473Z,24.5
2019-04-07T00:18:54.569Z,24.4
2019-04-07T00:20:03.939Z,24.5
2019-04-07T00:21:12.818Z,24.7
2019-04-07T00:22:22.302Z,24.8
2019-04-07T00:23:32.048Z,24.9
2019-04-07T00:24:41.776Z,25.1
2019-04-07T00:25:51.009Z,25
2019-04-07T00:27:00.082Z,24.9
2019-04-07T00:28:10.194Z,25.2
2019-04-07T00:29:19.632Z,25.2
2019-04-07T00:30:29.234Z,25.2
2019-04-07T00:31:37.889Z,25.3
2019-04-07T00:32:47.718Z,25.3
2019-04-07T00:33:56.755Z,25.4
2019-04-07T00:35:06.208Z,25.6
2019-04-07T00:36:15.654Z,25.5
2019-04-07T00:37:25.099Z,25.9
2019-04-07T00:38:34.763Z,25.7
2019-04-07T00:39:44.159Z,25.6
2019-04-07T00:40:54.182Z,26.1
2019-04-07T00:42:02.966Z,26
2019-04-07T00:43:12.322Z,26.1
2019-04-07T00:44:22.476Z,26.3
2019-04-07T00:45:31.673Z,26
2019-04-07T00:46:40.592Z,26
2019-04-07T00:47:50.548Z,26.3
2019-04-07T00:48:59.505Z,26.3
2019-04-07T00:50:08.913Z,26.4
2019-04-07T00:51:18.837Z,26.5
2019-04-07T00:52:28.424Z,26.5
2019-04-07T00:53:37.574Z,26.6
2019-04-07T00:55:56.316Z,27.1
2019-04-07T00:57:05.802Z,27
2019-04-07T00:58:14.943Z,27
2019-04-07T00:59:24.456Z,26.7
2019-04-07T01:00:33.795Z,27
2019-04-07T01:01:43.229Z,27.2
2019-04-07T01:02:53.031Z,27.1
2019-04-07T01:04:02.086Z,27.2
2019-04-07T01:05:11.583Z,27.3
2019-04-07T01:06:20.956Z,27.4
2019-04-07T01:07:30.918Z,27.3
2019-04-07T01:08:39.862Z,27.3
2019-04-07T01:09:49.552Z,27.4
2019-04-07T01:10:58.681Z,27.6
2019-04-07T01:12:08.078Z,27.5
2019-04-07T01:13:17.508Z,27.2
2019-04-07T01:14:26.971Z,27.4
2019-04-07T01:15:36.478Z,27
2019-04-07T01:16:45.785Z,27.3
2019-04-07T01:17:55.322Z,27.1
2019-04-07T01:19:04.704Z,27.2
2019-04-07T01:20:14.163Z,27.4
2019-04-07T01:21:23.787Z,27.4
2019-04-07T01:22:33.113Z,27.4
2019-04-07T01:23:42.508Z,27.5
2019-04-07T01:24:51.863Z,27.5
2019-04-07T01:26:01.233Z,27.5
2019-04-07T01:27:10.633Z,28
2019-04-07T01:28:20.050Z,28
2019-04-07T01:29:29.911Z,27.7
2019-04-07T01:30:38.898Z,27.9
2019-04-07T01:31:48.531Z,28
2019-04-07T01:32:57.748Z,28.1
2019-04-07T01:34:07.617Z,28.5
2019-04-07T01:35:16.897Z,28
2019-04-07T01:36:26.590Z,28
2019-04-07T01:37:35.403Z,27.7
2019-04-07T01:38:46.090Z,28
2019-04-07T01:39:54.938Z,27.8
2019-04-07T01:41:04.795Z,28.3
2019-04-07T01:42:13.073Z,28.4
2019-04-07T01:43:22.779Z,28.3
2019-04-07T01:44:31.945Z,28.3
2019-04-07T01:45:41.297Z,28.1
2019-04-07T01:46:50.898Z,28.4
2019-04-07T01:48:00.794Z,28.1
2019-04-07T01:49:11.132Z,28
2019-04-07T01:50:18.973Z,28.5
2019-04-07T01:51:28.372Z,28.4
2019-04-07T01:52:38.227Z,28.7
2019-04-07T01:54:57.547Z,28.9
2019-04-07T01:56:06.553Z,28.7
2019-04-07T01:57:15.673Z,28.5
2019-04-07T01:58:25.297Z,28.3
2019-04-07T01:59:34.468Z,28.3
2019-04-07T02:00:43.683Z,28.5
2019-04-07T02:01:53.723Z,28.4
2019-04-07T02:03:03.339Z,28.4
2019-04-07T02:04:11.912Z,28.3
2019-04-07T02:05:22.088Z,28.5
2019-04-07T02:06:31.220Z,28.5
2019-04-07T02:07:40.168Z,28.6
2019-04-07T02:09:59.670Z,29
2019-04-07T02:11:08.361Z,29.2
2019-04-07T02:12:18.169Z,29
2019-04-07T02:13:27.567Z,28.9
2019-04-07T02:14:36.837Z,29
2019-04-07T02:15:46.042Z,28.8
2019-04-07T02:16:55.422Z,28.9
2019-04-07T02:18:04.844Z,29.1
2019-04-07T02:19:14.207Z,29.5
2019-04-07T02:20:23.622Z,29.6
2019-04-07T02:21:33.037Z,29.5
2019-04-07T02:22:42.484Z,29.5
2019-04-07T02:23:52.707Z,29.6
2019-04-07T02:25:01.923Z,29.5
2019-04-07T02:26:11.483Z,29.4
2019-04-07T02:27:20.615Z,29.3
2019-04-07T02:28:29.480Z,29.4
2019-04-07T02:29:38.922Z,29.4
2019-04-07T02:30:48.410Z,29.4
2019-04-07T02:31:58.668Z,29.4
2019-04-07T02:33:07.097Z,29.4
2019-04-07T02:34:16.534Z,29.1
2019-04-07T02:35:26.028Z,29.3
2019-04-07T02:36:35.870Z,29.4
2019-04-07T02:37:44.719Z,29.4
2019-04-07T02:38:54.846Z,29.5
2019-04-07T02:40:05.356Z,29.6
2019-04-07T02:41:12.917Z,29.5
2019-04-07T02:42:22.890Z,29.5
2019-04-07T02:43:31.793Z,29.7
2019-04-07T02:44:41.142Z,29.7
2019-04-07T02:45:50.838Z,29.8
2019-04-07T02:47:00.945Z,30
2019-04-07T02:48:09.358Z,30.1
2019-04-07T02:49:18.743Z,30.8
2019-04-07T02:50:28.285Z,30.3
2019-04-07T02:51:38.449Z,30.3
2019-04-07T02:52:47.505Z,30.3
2019-04-07T02:53:57.122Z,30.3
2019-04-07T02:55:06.350Z,30
2019-04-07T02:56:16.129Z,30.1
2019-04-07T02:57:24.528Z,30.3
2019-04-07T02:58:33.940Z,30.5
2019-04-07T02:59:44.556Z,30.5
2019-04-07T03:00:52.718Z,30.4
2019-04-07T03:02:03.002Z,30.9
2019-04-07T03:03:11.523Z,30.7
2019-04-07T03:04:20.947Z,31.2
2019-04-07T03:05:30.319Z,30.8
2019-04-07T03:06:52.794Z,31
2019-04-07T03:07:49.152Z,30.7
2019-04-07T03:08:59.585Z,31.7
2019-04-07T03:10:08.978Z,31.6
2019-04-07T03:11:18.243Z,31.6
2019-04-07T03:12:27.664Z,31.8
2019-04-07T03:13:36.916Z,33
2019-04-07T03:14:45.760Z,32.7
2019-04-07T03:15:54.995Z,32.3
2019-04-07T03:17:06.618Z,32
2019-04-07T03:18:14.326Z,32.4
2019-04-07T03:19:23.643Z,33
2019-04-07T03:20:32.668Z,33.9
2019-04-07T03:21:42.589Z,33.9
2019-04-07T03:22:51.213Z,33.4
2019-04-07T03:24:00.616Z,33.2
2019-04-07T03:25:10.981Z,32.9
2019-04-07T03:26:20.570Z,32.9
2019-04-07T03:27:28.795Z,33.8
2019-04-07T03:28:38.175Z,33.7
2019-04-07T03:29:47.577Z,33.8
2019-04-07T03:30:59.618Z,33.7
2019-04-07T03:32:10.740Z,33.8
2019-04-07T03:33:21.692Z,33.7
2019-04-07T03:34:30.731Z,33.6
2019-04-07T03:35:35.958Z,33.6
2019-04-07T03:37:25.465Z,33.6
2019-04-07T03:37:53.414Z,33.6
2019-04-07T03:39:03.568Z,33.9
2019-04-07T03:40:12.683Z,33.7
2019-04-07T03:41:21.804Z,33.6
2019-04-07T03:42:31.625Z,33.6
2019-04-07T03:43:40.295Z,33.6
2019-04-07T03:44:49.581Z,33.6
2019-04-07T03:45:59.127Z,33.6
2019-04-07T03:47:09.839Z,33.6
2019-04-07T03:48:18.158Z,34.1
2019-04-07T03:49:27.547Z,34.4
2019-04-07T03:50:36.770Z,34.4
2019-04-07T03:51:45.892Z,33.7
2019-04-07T03:52:55.252Z,34.7
2019-04-07T03:54:04.658Z,34
2019-04-07T03:55:15.328Z,35.1
2019-04-07T03:56:23.462Z,35.1
2019-04-07T03:57:32.785Z,35.1
2019-04-07T03:58:43.322Z,35
2019-04-07T03:59:51.812Z,35.3
2019-04-07T04:01:00.947Z,35.5
2019-04-07T04:02:12.195Z,35.3
2019-04-07T04:03:19.667Z,35.7
2019-04-07T04:04:30.149Z,35.1
2019-04-07T04:05:39.438Z,35.1
2019-04-07T04:06:47.843Z,35.1
2019-04-07T04:07:57.177Z,35.5
2019-04-07T04:09:06.696Z,35.3
2019-04-07T04:10:16.316Z,35.1
2019-04-07T04:11:25.527Z,35.2
2019-04-07T04:12:35.796Z,35.6
2019-04-07T04:13:44.355Z,35.4
2019-04-07T04:14:53.454Z,35.9
2019-04-07T04:16:03.098Z,35.8
2019-04-07T04:17:13.077Z,35.7
2019-04-07T04:18:22.600Z,35.9
2019-04-07T04:19:31.136Z,35.8
2019-04-07T04:20:41.030Z,36.1
2019-04-07T04:21:49.690Z,35.5
2019-04-07T04:22:59.877Z,36.4
2019-04-07T04:24:08.458Z,36.1
2019-04-07T04:25:17.812Z,36.9
2019-04-07T04:26:27.274Z,37.4
2019-04-07T04:27:37.013Z,37.5
2019-04-07T04:28:46.270Z,37.3
2019-04-07T04:29:56.641Z,37.7
2019-04-07T04:31:04.823Z,37.7
2019-04-07T04:32:14.159Z,37.7
2019-04-07T04:33:23.663Z,39.1
2019-04-07T04:34:33.049Z,38.4
2019-04-07T04:35:42.889Z,38.3
2019-04-07T04:36:54.423Z,38.7
2019-04-07T04:38:01.980Z,39.4
2019-04-07T04:39:10.300Z,40.1
2019-04-07T04:40:20.833Z,39.1
2019-04-07T04:41:29.494Z,40.2
2019-04-07T04:42:38.534Z,40.2
2019-04-07T04:43:47.797Z,39.4
2019-04-07T04:44:57.135Z,39.2
2019-04-07T04:46:11.253Z,39
2019-04-07T04:47:16.758Z,38.8
2019-04-07T04:48:26.041Z,38.8
2019-04-07T04:49:35.356Z,38.4
2019-04-07T04:50:44.185Z,37.9
2019-04-07T04:51:54.365Z,37.9
2019-04-07T04:53:02.743Z,37.8
2019-04-07T04:54:12.718Z,37.3
2019-04-07T04:55:22.288Z,37.5
2019-04-07T04:56:31.072Z,36.5
2019-04-07T04:57:40.649Z,36.7
2019-04-07T04:58:50.835Z,35.8
2019-04-07T04:59:59.324Z,35.8
2019-04-07T05:01:08.382Z,35.5
2019-04-07T05:02:17.719Z,35.7
2019-04-07T05:03:27.317Z,34.4
2019-04-07T05:04:37.493Z,34
2019-04-07T05:05:45.895Z,33.7
2019-04-07T05:06:57.134Z,33.9
2019-04-07T05:08:06.889Z,33.8
2019-04-07T05:09:15.105Z,33.8
2019-04-07T05:10:24.949Z,34.1
2019-04-07T05:11:34.488Z,33.6
2019-04-07T05:12:43.494Z,34
2019-04-07T05:13:53.067Z,34.3
2019-04-07T05:15:02.048Z,33
2019-04-07T05:16:11.913Z,31.9
2019-04-07T05:17:20.988Z,31.9
2019-04-07T05:18:30.778Z,31.9
2019-04-07T05:19:42.934Z,32.2
2019-04-07T05:20:49.021Z,32.7
2019-04-07T05:21:59.053Z,32.3
2019-04-07T05:23:08.731Z,32
2019-04-07T05:24:18.008Z,32
2019-04-07T05:25:27.468Z,30.4
2019-04-07T05:26:36.603Z,30.4
2019-04-07T05:27:45.908Z,30.9
2019-04-07T05:28:55.130Z,30.6
2019-04-07T05:30:05.021Z,29.5
2019-04-07T05:31:13.625Z,29.5
2019-04-07T05:32:23.330Z,29.9
2019-04-07T05:33:32.434Z,29.4
2019-04-07T05:34:42.406Z,29.1
2019-04-07T05:35:51.763Z,29.2
2019-04-07T05:37:01.329Z,28.5
2019-04-07T05:38:10.100Z,29.2
2019-04-07T05:39:19.521Z,29
2019-04-07T05:40:29.568Z,28.3
2019-04-07T05:41:38.541Z,27.6
2019-04-07T05:42:48.406Z,27.5
2019-04-07T05:45:06.796Z,26.9
2019-04-07T05:46:16.118Z,26
2019-04-07T05:47:25.581Z,27
2019-04-07T05:48:35.017Z,26.1
2019-04-07T05:49:44.657Z,26.5
2019-04-07T05:50:53.913Z,27.5
2019-04-07T05:52:06.062Z,27.2
2019-04-07T05:53:14.853Z,25.7
2019-04-07T05:54:22.572Z,26.2
2019-04-07T05:55:32.119Z,26.1
2019-04-07T05:56:41.327Z,25.3
2019-04-07T05:57:50.450Z,24.9
2019-04-07T05:59:00.608Z,23.8
2019-04-07T06:00:15.548Z,25
2019-04-07T06:01:23.611Z,25.3
2019-04-07T06:02:33.966Z,25.5
2019-04-07T06:03:43.351Z,24.6
2019-04-07T06:04:49.241Z,24.7
2019-04-07T06:05:58.059Z,25.4
2019-04-07T06:07:07.120Z,24.6
2019-04-07T06:08:32.470Z,23.4
2019-04-07T06:09:25.193Z,23.1
2019-04-07T06:10:34.955Z,20.8
2019-04-07T06:12:54.140Z,22.6
2019-04-07T06:14:03.058Z,25.4
2019-04-07T06:15:12.940Z,25.4
2019-04-07T06:16:22.650Z,25.3
2019-04-07T06:17:31.551Z,24.1
2019-04-07T06:18:41.187Z,22.9
2019-04-07T06:19:52.647Z,23.4
2019-04-07T06:21:00.029Z,22.7
2019-04-07T06:22:10.111Z,23.5
2019-04-07T06:23:24.582Z,21.9
2019-04-07T06:24:33.360Z,22.3
2019-04-07T06:25:43.154Z,22.5
2019-04-07T06:27:56.938Z,20.8
2019-04-07T06:29:07.039Z,22
2019-04-07T06:30:16.612Z,21.2
2019-04-07T06:31:27.143Z,21.7
2019-04-07T06:32:37.783Z,22.9
2019-04-07T06:33:44.691Z,21.8
2019-04-07T06:34:54.078Z,20.9
2019-04-07T06:36:03.899Z,20.9
2019-04-07T06:37:13.410Z,20.6
2019-04-07T06:38:34.828Z,22.8
2019-04-07T06:39:32.371Z,23.4
2019-04-07T06:40:41.327Z,23.2
2019-04-07T06:41:51.404Z,22.5
2019-04-07T06:43:06.075Z,21.4
2019-04-07T06:44:18.726Z,21.2
2019-04-07T06:45:23.281Z,22.2
2019-04-07T06:46:29.654Z,21.5
2019-04-07T06:47:38.818Z,19.8
2019-04-07T06:48:48.801Z,19.1
2019-04-07T06:49:57.566Z,20.5
2019-04-07T06:51:07.098Z,20.5
2019-04-07T06:52:17.289Z,21
2019-04-07T06:53:26.920Z,19.3
2019-04-07T06:54:35.776Z,19.9
2019-04-07T06:55:46.182Z,19.6
2019-04-07T06:58:08.396Z,20.5
2019-04-07T06:59:16.307Z,19.6
2019-04-07T07:00:25.941Z,20
2019-04-07T07:01:34.923Z,19.1
2019-04-07T07:02:45.480Z,19.1
2019-04-07T07:03:53.865Z,20
2019-04-07T07:05:03.125Z,20.8
2019-04-07T07:06:17.320Z,21
2019-04-07T07:07:22.742Z,21.3
2019-04-07T07:08:46.331Z,21.5
2019-04-07T07:09:42.514Z,20
2019-04-07T07:10:51.039Z,17.9
2019-04-07T07:12:01.630Z,17.2
2019-04-07T07:13:26.372Z,15.6
2019-04-07T07:14:39.811Z,15.2
2019-04-07T07:15:35.933Z,14.2
2019-04-07T07:16:45.050Z,13.4
2019-04-07T07:17:51.942Z,15.4
2019-04-07T07:19:02.143Z,17.3
2019-04-07T07:20:07.959Z,16.2
2019-04-07T07:21:17.609Z,17.4
2019-04-07T07:22:28.621Z,18.2
2019-04-07T07:23:37.604Z,17.9
2019-04-07T07:24:47.589Z,16.5
2019-04-07T07:25:56.641Z,15.4
2019-04-07T07:27:10.491Z,17.1
2019-04-07T07:28:16.231Z,17.5
2019-04-07T07:29:26.955Z,17.8
2019-04-07T07:30:34.995Z,18.1
2019-04-07T07:31:44.943Z,18.7
2019-04-07T07:32:55.364Z,18.7
2019-04-07T07:34:05.111Z,18.3
2019-04-07T07:35:16.395Z,16.2
2019-04-07T07:36:24.247Z,14.1
2019-04-07T07:37:33.944Z,13.9
2019-04-07T07:39:01.176Z,12.6
2019-04-07T07:39:53.223Z,11.6
2019-04-07T07:41:04.722Z,10.3
2019-04-07T07:43:22.774Z,9.6
2019-04-07T07:44:38.222Z,9.1
2019-04-07T07:45:48.071Z,9.2
2019-04-07T07:46:52.771Z,12.1
2019-04-07T07:48:02.127Z,13.7
2019-04-07T07:49:11.661Z,14
2019-04-07T07:50:20.886Z,15.2
2019-04-07T07:51:31.431Z,14.8
2019-04-07T07:52:40.357Z,16.8
2019-04-07T07:53:50.578Z,17.2
2019-04-07T07:55:02.725Z,17.5
2019-04-07T07:56:13.233Z,17.5
2019-04-07T07:57:24.646Z,16.3
2019-04-07T07:58:33.569Z,15.8
2019-04-07T07:59:40.386Z,15.6
2019-04-07T08:00:48.580Z,14.7
2019-04-07T08:01:58.819Z,16.3
2019-04-07T08:03:08.631Z,15.7
2019-04-07T08:04:19.079Z,15.5
2019-04-07T08:05:33.526Z,15.3
2019-04-07T08:06:41.014Z,15.6
2019-04-07T08:07:50.149Z,15.2
2019-04-07T08:09:13.611Z,15.6
2019-04-07T08:10:07.248Z,14.1
2019-04-07T08:11:17.732Z,15.1
2019-04-07T08:12:25.981Z,15.5
2019-04-07T08:13:44.509Z,14.3
2019-04-07T08:14:53.065Z,13.9
2019-04-07T08:15:59.188Z,14.8
2019-04-07T08:17:04.964Z,15.9
2019-04-07T08:18:14.745Z,14.3
2019-04-07T08:19:30.348Z,14.1
2019-04-07T08:20:35.059Z,14.1
2019-04-07T08:21:46.083Z,14.6
2019-04-07T08:22:54.095Z,13.1
2019-04-07T08:24:04.028Z,15.6
2019-04-07T08:25:14.249Z,14.1
2019-04-07T08:26:25.994Z,14.4
2019-04-07T08:27:33.223Z,14
2019-04-07T08:28:43.683Z,12.4
2019-04-07T08:29:53.502Z,12.8
2019-04-07T08:31:02.548Z,13.5
2019-04-07T08:32:13.314Z,13.4
2019-04-07T08:33:22.669Z,13
2019-04-07T08:34:33.132Z,14.1
2019-04-07T08:35:42.701Z,14.6
2019-04-07T08:36:52.019Z,13.3
2019-04-07T08:38:01.457Z,12.3
2019-04-07T08:39:25.517Z,12.7
2019-04-07T08:40:21.095Z,13.7
2019-04-07T08:41:31.313Z,11.2
2019-04-07T08:42:41.856Z,12.3
2019-04-07T08:43:56.521Z,12.3
2019-04-07T08:45:01.529Z,13.8
2019-04-07T08:46:11.092Z,13.9
2019-04-07T08:47:23.356Z,13.9
2019-04-07T08:48:30.722Z,14.4
2019-04-07T08:49:40.458Z,14.2
2019-04-07T08:50:50.329Z,13.4
2019-04-07T08:52:08.407Z,12
2019-04-07T08:53:13.795Z,13.3
2019-04-07T08:54:18.996Z,13.1
2019-04-07T08:55:28.951Z,13.9
2019-04-07T08:56:38.818Z,14.1
2019-04-07T08:57:48.478Z,13.7
2019-04-07T08:58:58.299Z,12.8
2019-04-07T09:00:16.777Z,11.4
2019-04-07T09:01:21.307Z,9.7
2019-04-07T09:02:30.919Z,10.5
2019-04-07T09:03:37.830Z,10.2
2019-04-07T09:04:52.371Z,9.8
2019-04-07T09:05:58.506Z,10.9
2019-04-07T09:07:08.058Z,10.3
2019-04-07T09:08:17.978Z,10.1
2019-04-07T09:09:36.205Z,11.2
2019-04-07T09:10:37.258Z,10.2
2019-04-07T09:11:47.343Z,11.1
2019-04-07T09:13:01.778Z,12.9
2019-04-07T09:14:08.564Z,11.8
2019-04-07T09:15:16.697Z,10.1
2019-04-07T09:16:25.712Z,10.4
2019-04-07T09:19:00.481Z,9.3
2019-04-07T09:19:55.430Z,9.3
2019-04-07T09:21:04.932Z,8.5
2019-04-07T09:22:15.587Z,7.7
2019-04-07T09:23:27.427Z,6.8
2019-04-07T09:24:34.404Z,7
2019-04-07T09:25:44.878Z,7
2019-04-07T09:26:54.496Z,8
2019-04-07T09:28:03.906Z,8.8
2019-04-07T09:29:13.760Z,9.1
2019-04-07T09:30:23.707Z,10.4
2019-04-07T09:31:33.730Z,10.7
2019-04-07T09:32:43.915Z,12
2019-04-07T09:33:54.052Z,10.1
2019-04-07T09:35:02.895Z,10.7
2019-04-07T09:36:13.407Z,10.6
2019-04-07T09:37:25.959Z,10.6
2019-04-07T09:38:32.323Z,10.9
2019-04-07T09:40:00.455Z,10.9
2019-04-07T09:40:52.788Z,10.4
2019-04-07T09:42:02.104Z,9.3
2019-04-07T09:43:11.460Z,11.3
2019-04-07T09:44:22.086Z,10.3
2019-04-07T09:45:31.046Z,11
2019-04-07T09:46:48.960Z,10.1
2019-04-07T09:47:51.273Z,10.1
2019-04-07T09:49:02.038Z,8.8
2019-04-07T09:50:10.336Z,7.5
2019-04-07T09:52:30.620Z,9.1
2019-04-07T09:53:40.385Z,9.4
2019-04-07T09:54:55.241Z,9.5
2019-04-07T09:55:59.304Z,9.1
2019-04-07T09:57:09.757Z,8.2
2019-04-07T09:58:19.330Z,8.4
2019-04-07T09:59:28.587Z,7.7
2019-04-07T10:00:38.806Z,7.7
2019-04-07T10:01:48.780Z,8.1
2019-04-07T10:02:57.695Z,8.5
2019-04-07T10:04:07.837Z,8.2
2019-04-07T10:05:17.271Z,9.4
2019-04-07T10:06:27.151Z,9
2019-04-07T10:08:47.895Z,8
2019-04-07T10:10:12.804Z,6.1
2019-04-07T10:11:06.196Z,5.4
2019-04-07T10:12:15.992Z,6.6
2019-04-07T10:13:25.735Z,7
2019-04-07T10:14:36.347Z,7.1
2019-04-07T10:15:45.301Z,6.8
2019-04-07T10:16:55.107Z,6.2
2019-04-07T10:18:04.890Z,8
2019-04-07T10:19:15.443Z,7.5
2019-04-07T10:20:25.978Z,6.5
2019-04-07T10:21:35.088Z,6.8
2019-04-07T10:22:44.187Z,6.1
2019-04-07T10:23:54.104Z,7.1
2019-04-07T10:25:04.504Z,7.2
2019-04-07T10:26:13.225Z,8.2
2019-04-07T10:27:22.990Z,7.1
2019-04-07T10:28:33.490Z,6.7
2019-04-07T10:29:43.709Z,6
2019-04-07T10:30:52.985Z,5
2019-04-07T10:32:02.476Z,5.5
2019-04-07T10:33:12.236Z,5.2
2019-04-07T10:34:21.626Z,6.4
2019-04-07T10:35:31.338Z,6.7
2019-04-07T10:36:42.531Z,6.6
2019-04-07T10:39:00.884Z,6.2
2019-04-07T10:40:21.156Z,6.6
2019-04-07T10:42:29.932Z,4.6
2019-04-07T10:43:40.552Z,3.7
2019-04-07T10:44:49.438Z,5.8
2019-04-07T10:46:00.357Z,5.6
2019-04-07T10:47:09.646Z,6.1
2019-04-07T10:48:19.252Z,6.5
2019-04-07T10:49:28.564Z,6.9
2019-04-07T10:50:38.272Z,7
2019-04-07T10:51:48.953Z,6.4
2019-04-07T10:52:58.071Z,3.9
2019-04-07T10:54:08.228Z,3.9
2019-04-07T10:55:17.355Z,4.4
2019-04-07T10:56:27.751Z,3.9
2019-04-07T10:57:37.950Z,3.5
2019-04-07T10:58:48.422Z,4.8
2019-04-07T10:59:58.001Z,5.2
2019-04-07T11:01:07.240Z,6.1
2019-04-07T11:02:16.942Z,5.1
2019-04-07T11:03:27.395Z,4.6
2019-04-07T11:04:36.462Z,5.1
2019-04-07T11:05:46.180Z,6.8
2019-04-07T11:06:56.386Z,4.7
2019-04-07T11:08:06.193Z,3.5
2019-04-07T11:09:15.648Z,4.3
2019-04-07T11:10:38.136Z,2.5
2019-04-07T11:12:44.780Z,6.4
2019-04-07T11:13:55.534Z,5.9
2019-04-07T11:15:06.098Z,4.3
2019-04-07T11:16:15.875Z,3.7
2019-04-07T11:17:25.601Z,4.1
2019-04-07T11:18:36.496Z,3.5
2019-04-07T11:19:45.200Z,3.5
2019-04-07T11:20:55.829Z,3.7
2019-04-07T11:22:05.720Z,3.4
2019-04-07T11:23:15.619Z,4.2
2019-04-07T11:24:24.338Z,4.1
2019-04-07T11:25:34.781Z,4.7
2019-04-07T11:26:43.974Z,4.2
2019-04-07T11:27:54.037Z,4.2
2019-04-07T11:29:03.579Z,2.2
2019-04-07T11:30:13.374Z,3.4
2019-04-07T11:31:23.349Z,3.1
2019-04-07T11:32:32.908Z,3.2
2019-04-07T11:33:42.671Z,2.9
2019-04-07T11:34:53.100Z,3.6
2019-04-07T11:36:02.474Z,2.4
2019-04-07T11:37:14.243Z,2.1
2019-04-07T11:38:21.836Z,1
2019-04-07T11:39:31.621Z,1.6
2019-04-07T11:40:48.857Z,3.2
2019-04-07T11:41:51.547Z,3.2
2019-04-07T11:43:01.065Z,3.7
2019-04-07T11:44:11.524Z,3.8
2019-04-07T11:45:20.842Z,3.8
2019-04-07T11:46:30.631Z,4.3
2019-04-07T11:47:41.733Z,3.7
2019-04-07T11:48:51.522Z,2.5
2019-04-07T11:50:01.566Z,3.2
2019-04-07T11:51:10.902Z,3
2019-04-07T11:52:20.725Z,1
2019-04-07T11:53:30.528Z,1.9
2019-04-07T11:54:40.381Z,1.5
2019-04-07T11:55:51.098Z,1.3
2019-04-07T11:57:00.936Z,1.9
2019-04-07T11:58:18.493Z,1.4
2019-04-07T11:59:20.498Z,1
2019-04-07T12:00:30.113Z,1.7
2019-04-07T12:01:39.562Z,2.6
2019-04-07T12:02:52.318Z,2.1
2019-04-07T12:03:59.981Z,1.9
2019-04-07T12:05:09.917Z,1.1
2019-04-07T12:06:19.416Z,1
2019-04-07T12:07:29.258Z,1
2019-04-07T12:08:38.726Z,1
2019-04-07T12:09:48.109Z,1
2019-04-07T12:11:04.979Z,1
2019-04-07T12:12:08.062Z,1
2019-04-07T12:13:17.656Z,1.1
2019-04-07T12:14:27.652Z,2.5
2019-04-07T12:15:37.234Z,1.4
2019-04-07T12:16:47.348Z,1
2019-04-07T12:17:56.890Z,1
2019-04-07T12:19:10.547Z,1
2019-04-07T12:20:16.598Z,1
2019-04-07T12:21:27.604Z,1
2019-04-07T12:22:36.167Z,1
2019-04-07T12:23:46.545Z,1
2019-04-07T12:25:01.776Z,1
2019-04-07T12:26:07.447Z,1
2019-04-07T12:27:16.237Z,1
2019-04-07T12:28:25.792Z,1
2019-04-07T12:29:35.387Z,1
2019-04-07T12:30:45.212Z,1
2019-04-07T12:31:54.874Z,1.8
2019-04-07T12:33:08.685Z,2.6
2019-04-07T12:34:15.577Z,1.9
2019-04-07T12:35:24.351Z,1.7
2019-04-07T12:36:34.657Z,1
2019-04-07T12:37:44.679Z,1
2019-04-07T12:38:54.344Z,1
2019-04-07T12:40:04.410Z,1
2019-04-07T12:41:21.936Z,1
2019-04-07T12:42:23.461Z,1
2019-04-07T12:43:34.081Z,1
2019-04-07T12:44:43.009Z,1
2019-04-07T12:45:53.722Z,1
2019-04-07T12:47:03.231Z,1
2019-04-07T12:48:12.777Z,1
2019-04-07T12:49:23.216Z,1
2019-04-07T12:50:33.064Z,1
2019-04-07T12:51:43.052Z,1
2019-04-07T12:52:51.970Z,1
2019-04-07T12:54:02.984Z,1.1
2019-04-07T12:55:17.895Z,1.2
2019-04-07T12:56:22.183Z,1
2019-04-07T12:57:38.121Z,1
2019-04-07T12:58:46.225Z,1
2019-04-07T12:59:51.775Z,1
2019-04-07T13:01:15.557Z,1
2019-04-07T13:02:11.495Z,1
2019-04-07T13:03:21.208Z,1
2019-04-07T13:04:30.119Z,1.1
2019-04-07T13:05:39.866Z,1
2019-04-07T13:06:49.670Z,1
2019-04-07T13:08:00.265Z,1
2019-04-07T13:09:09.312Z,1
2019-04-07T13:10:19.493Z,1
2019-04-07T13:11:38.409Z,1
2019-04-07T13:12:38.860Z,1
2019-04-07T13:13:48.599Z,1
2019-04-07T13:14:59.106Z,1
2019-04-07T13:16:09.213Z,1
2019-04-07T13:17:18.103Z,1
2019-04-07T13:18:31.607Z,1
2019-04-07T13:19:38.580Z,1
2019-04-07T13:20:52.043Z,1
2019-04-07T13:22:02.201Z,1
2019-04-07T13:23:08.035Z,1
2019-04-07T13:24:33.989Z,1
2019-04-07T13:25:31.223Z,1
2019-04-07T13:26:37.498Z,1
2019-04-07T13:27:46.957Z,1
2019-04-07T13:28:57.648Z,1
2019-04-07T13:30:08.243Z,1
2019-04-07T13:31:16.422Z,1
2019-04-07T13:32:43.170Z,1
2019-04-07T13:33:38.056Z,1
2019-04-07T13:34:46.139Z,1
2019-04-07T13:35:56.369Z,1
2019-04-07T13:37:05.827Z,1
2019-04-07T13:38:16.520Z,1
2019-04-07T13:39:26.083Z,1
2019-04-07T13:40:36.256Z,1
2019-04-07T13:41:53.238Z,1
2019-04-07T13:43:01.834Z,1
2019-04-07T13:44:07.768Z,1
2019-04-07T13:45:17.746Z,1
2019-04-07T13:46:35.970Z,1
2019-04-07T13:47:43.280Z,1
2019-04-07T13:48:52.836Z,1
2019-04-07T13:49:59.989Z,1
2019-04-07T13:51:04.800Z,1
2019-04-07T13:52:20.846Z,1
2019-04-07T13:53:28.742Z,1
2019-04-07T13:54:34.639Z,1
2019-04-07T13:55:45.213Z,1
2019-04-07T13:56:54.894Z,1
2019-04-07T13:58:05.544Z,1
2019-04-07T13:59:15.025Z,1
2019-04-07T14:00:25.304Z,1
2019-04-07T14:01:35.797Z,1
2019-04-07T14:02:45.462Z,1
2019-04-07T14:03:59.003Z,1
2019-04-07T14:05:11.051Z,1
2019-04-07T14:06:15.091Z,1
2019-04-07T14:07:26.365Z,1
2019-04-07T14:09:45.305Z,1
2019-04-07T14:10:57.860Z,2.1
2019-04-07T14:12:12.657Z,1.5
2019-04-07T14:13:15.893Z,1.4
2019-04-07T14:14:25.637Z,1.4
2019-04-07T14:15:34.917Z,1
2019-04-07T14:16:44.906Z,1
2019-04-07T14:17:55.854Z,1
2019-04-07T14:20:15.930Z,1
2019-04-07T14:21:24.960Z,1
2019-04-07T14:22:35.279Z,1
2019-04-07T14:23:45.002Z,1
2019-04-07T14:24:56.925Z,1
2019-04-07T14:26:05.787Z,1
2019-04-07T14:27:15.413Z,1
2019-04-07T14:28:25.631Z,1
2019-04-07T14:29:35.985Z,1
2019-04-07T14:30:45.662Z,1
2019-04-07T14:31:55.629Z,1
2019-04-07T14:33:06.645Z,1
2019-04-07T14:34:15.808Z,1
2019-04-07T14:35:25.940Z,1
2019-04-07T14:36:36.191Z,1
2019-04-07T14:37:46.299Z,1
2019-04-07T14:38:56.057Z,1
2019-04-07T14:40:05.847Z,1
2019-04-07T14:41:16.057Z,1
2019-04-07T14:42:26.403Z,1
2019-04-07T14:43:36.390Z,1
2019-04-07T14:44:46.847Z,1
2019-04-07T14:45:58.037Z,1
2019-04-07T14:47:06.628Z,1
2019-04-07T14:48:17.673Z,1
2019-04-07T14:49:28.887Z,1
2019-04-07T14:50:37.534Z,1
2019-04-07T14:51:47.247Z,1
2019-04-07T14:52:57.793Z,1
2019-04-07T14:54:06.793Z,1
2019-04-07T14:55:17.346Z,1
2019-04-07T14:56:28.332Z,1
2019-04-07T14:57:41.473Z,1
2019-04-07T14:58:53.545Z,1
2019-04-07T14:59:57.940Z,1
2019-04-07T15:01:08.540Z,1
2019-04-07T15:02:17.341Z,1
2019-04-07T15:03:27.486Z,1
2019-04-07T15:04:38.003Z,1
2019-04-07T15:05:48.429Z,1
2019-04-07T15:06:57.489Z,1
2019-04-07T15:08:08.427Z,1.3
2019-04-07T15:09:17.703Z,1.3
2019-04-07T15:10:27.816Z,1.6
2019-04-07T15:11:37.922Z,1.1
2019-04-07T15:12:47.457Z,1
2019-04-07T15:14:01.568Z,1.5
2019-04-07T15:15:11.716Z,1
2019-04-07T15:16:17.413Z,1
2019-04-07T15:17:27.362Z,1
2019-04-07T15:18:38.259Z,1
2019-04-07T15:19:48.302Z,1
2019-04-07T15:20:57.409Z,1
2019-04-07T15:22:07.941Z,1
2019-04-07T15:23:17.614Z,1
2019-04-07T15:24:27.189Z,1
2019-04-07T15:25:43.309Z,1
2019-04-07T15:26:50.229Z,1.2
2019-04-07T15:28:01.036Z,2.4
2019-04-07T15:29:10.768Z,2.8
2019-04-07T15:30:18.117Z,1.9
2019-04-07T15:31:27.003Z,1.5
2019-04-07T15:32:36.838Z,1
2019-04-07T15:33:47.872Z,1
2019-04-07T15:34:56.724Z,1
2019-04-07T15:36:09.280Z,1
2019-04-07T15:37:22.829Z,1
2019-04-07T15:38:28.441Z,1
2019-04-07T15:39:38.336Z,1
2019-04-07T15:40:47.182Z,1
2019-04-07T15:41:56.689Z,1
2019-04-07T15:43:10.982Z,1
2019-04-07T15:44:16.915Z,1
2019-04-07T15:45:26.695Z,1
2019-04-07T15:46:36.884Z,1
2019-04-07T15:47:47.333Z,1
2019-04-07T15:48:57.029Z,1
2019-04-07T15:50:05.553Z,1
2019-04-07T15:51:16.440Z,1
2019-04-07T15:52:25.280Z,1
2019-04-07T15:53:35.190Z,1
2019-04-07T15:54:45.023Z,1
2019-04-07T15:56:05.817Z,1
2019-04-07T15:57:05.937Z,1.1
2019-04-07T15:58:15.024Z,1.7
2019-04-07T15:59:24.925Z,1.4
2019-04-07T16:00:35.355Z,1
2019-04-07T16:01:44.221Z,1
2019-04-07T16:02:54.918Z,1
2019-04-07T16:04:06.973Z,1
2019-04-07T16:05:14.563Z,1.4
2019-04-07T16:06:23.290Z,1.4
2019-04-07T16:07:33.100Z,1
2019-04-07T16:08:42.927Z,1
2019-04-07T16:09:57.949Z,1
2019-04-07T16:11:02.430Z,1
2019-04-07T16:12:12.199Z,1
2019-04-07T16:13:22.854Z,1
2019-04-07T16:14:32.345Z,1
2019-04-07T16:15:45.273Z,1
2019-04-07T16:16:53.704Z,1
2019-04-07T16:18:06.329Z,1